createdAt,value
2022-10-21T00:47:22.334Z,60.50
2022-10-21T00:50:00.179Z,60.80
2022-10-21T00:52:31.111Z,61.00
2022-10-21T00:55:03.561Z,61.00
2022-10-21T00:57:34.627Z,61.00
2022-10-21T01:45:29.464Z,60.80
2022-10-21T02:49:59.210Z,60.60
2022-10-21T02:55:40.048Z,64.80
2022-10-21T03:47:02.402Z,60.70
2022-10-21T03:49:31.192Z,61.00
2022-10-21T03:51:59.867Z,60.90
2022-10-21T03:54:28.239Z,61.00
2022-10-21T03:56:57.045Z,60.90
2022-10-21T03:59:25.449Z,60.90
2022-10-21T04:30:24.232Z,60.50
2022-10-21T04:32:52.599Z,61.00
2022-10-21T04:35:20.754Z,61.00
2022-10-21T04:37:49.107Z,60.90
2022-10-21T04:40:17.688Z,60.70
2022-10-21T04:42:49.349Z,60.80
2022-10-21T04:45:18.054Z,60.60
2022-10-21T04:47:47.951Z,60.70
2022-10-21T04:50:16.408Z,60.90
2022-10-21T04:52:44.953Z,60.80
2022-10-21T04:55:13.442Z,61.00
2022-10-21T04:57:42.740Z,61.10
2022-10-21T05:00:12.964Z,61.00
2022-10-21T05:02:41.489Z,60.60
2022-10-21T05:05:11.550Z,61.00
2022-10-21T05:07:40.316Z,61.20
2022-10-21T05:10:09.855Z,60.70
2022-10-21T05:12:38.167Z,60.70
2022-10-21T05:15:07.474Z,61.00
2022-10-21T05:17:36.974Z,60.40
2022-10-21T05:20:07.128Z,61.00
2022-10-21T05:22:37.536Z,60.80
2022-10-21T05:25:07.115Z,60.80
2022-10-21T05:27:35.447Z,61.40
2022-10-21T05:30:04.233Z,62.60
2022-10-21T05:32:32.575Z,62.40
2022-10-21T05:35:00.929Z,62.50
2022-10-21T05:37:29.072Z,62.30
2022-10-21T05:39:58.561Z,62.70
2022-10-21T05:42:27.590Z,62.50
2022-10-21T05:44:55.794Z,61.90
2022-10-21T05:47:24.390Z,61.90
2022-10-21T05:49:52.956Z,61.90
2022-10-21T05:52:21.307Z,62.00
2022-10-21T05:54:49.641Z,61.70
2022-10-21T05:57:19.222Z,62.70
2022-10-21T05:59:47.381Z,62.70
2022-10-21T06:02:15.666Z,62.80
2022-10-21T06:04:43.881Z,63.10
2022-10-21T06:07:12.213Z,63.30
2022-10-21T06:09:40.981Z,63.20
2022-10-21T06:12:09.662Z,63.00
2022-10-21T06:14:39.333Z,62.00
2022-10-21T06:17:07.684Z,61.70
2022-10-21T06:19:36.218Z,59.30
2022-10-21T06:22:04.547Z,56.20
2022-10-21T06:24:33.336Z,55.10
2022-10-21T06:27:01.613Z,54.00
2022-10-21T06:29:29.987Z,54.80
2022-10-21T06:31:59.499Z,54.80
2022-10-21T06:34:27.698Z,54.90
2022-10-21T06:36:55.896Z,54.60
2022-10-21T06:39:24.275Z,55.00
2022-10-21T06:41:52.466Z,54.50
2022-10-21T06:44:40.664Z,55.00
2022-10-21T06:47:10.652Z,55.20
2022-10-21T06:49:39.029Z,55.30
2022-10-21T06:52:07.171Z,55.90
2022-10-21T06:54:35.464Z,55.90
2022-10-21T06:57:05.064Z,56.00
2022-10-21T06:59:33.446Z,56.00
2022-10-21T07:02:01.831Z,56.50
2022-10-21T07:04:31.417Z,56.50
2022-10-21T07:06:59.860Z,56.50
2022-10-21T07:09:28.115Z,56.80
2022-10-21T07:11:56.372Z,56.80
2022-10-21T07:14:25.286Z,57.30
2022-10-21T07:16:53.997Z,56.90
2022-10-21T07:19:22.230Z,57.20
2022-10-21T07:21:52.243Z,57.40
2022-10-21T07:24:22.689Z,57.30
2022-10-21T07:26:52.342Z,57.40
2022-10-21T07:29:21.757Z,57.50
2022-10-21T07:31:50.044Z,57.60
2022-10-21T07:34:18.991Z,58.00
2022-10-21T07:36:52.544Z,57.80
2022-10-21T07:39:27.110Z,57.50
2022-10-21T07:41:58.699Z,57.60
2022-10-21T07:44:27.673Z,57.60
2022-10-21T07:46:56.336Z,57.90
2022-10-21T07:49:25.506Z,57.80
2022-10-21T07:51:54.297Z,57.80
2022-10-21T07:54:24.547Z,58.10
2022-10-21T07:56:53.961Z,58.30
2022-10-21T07:59:23.636Z,58.10
2022-10-21T08:01:53.033Z,58.20
2022-10-21T08:04:29.603Z,58.20
2022-10-21T08:06:58.104Z,58.10
2022-10-21T08:09:27.721Z,58.40
2022-10-21T08:11:57.130Z,58.40
2022-10-21T08:14:25.480Z,58.40
2022-10-21T08:16:54.364Z,58.40
2022-10-21T08:19:29.366Z,58.40
2022-10-21T08:21:59.025Z,58.30
2022-10-21T08:24:29.211Z,58.30
2022-10-21T08:26:57.424Z,58.40
2022-10-21T08:29:25.955Z,58.60
2022-10-21T08:31:54.355Z,57.90
2022-10-21T08:34:22.954Z,58.00
2022-10-21T08:36:51.158Z,58.40
2022-10-21T08:39:19.446Z,58.60
2022-10-21T08:42:02.512Z,58.70
2022-10-21T08:44:40.481Z,58.10
2022-10-21T08:47:18.042Z,58.40
2022-10-21T08:50:03.804Z,58.50
2022-10-21T08:52:40.859Z,58.40
2022-10-21T08:55:18.232Z,58.20
2022-10-21T08:57:49.096Z,58.40
2022-10-21T09:00:20.920Z,58.40
2022-10-21T09:03:18.109Z,58.60
2022-10-21T09:06:26.795Z,58.50
2022-10-21T09:09:08.444Z,58.60
2022-10-21T09:11:50.330Z,58.60
2022-10-21T09:15:11.149Z,58.80
2022-10-21T09:18:15.099Z,58.80
2022-10-21T09:20:57.164Z,58.80
2022-10-21T09:23:59.274Z,58.80
2022-10-21T09:26:41.627Z,58.80
2022-10-21T09:29:28.557Z,58.90
2022-10-21T09:32:13.430Z,58.90
2022-10-21T09:34:50.115Z,58.90
2022-10-21T09:37:30.436Z,59.40
2022-10-21T09:40:13.580Z,58.90
2022-10-21T09:42:47.528Z,58.90
2022-10-21T09:45:25.928Z,59.20
2022-10-21T09:47:59.797Z,59.10
2022-10-21T09:50:29.616Z,59.00
2022-10-21T09:53:09.091Z,59.20
2022-10-21T09:55:41.030Z,59.10
2022-10-21T09:58:24.460Z,59.00
2022-10-21T10:00:53.340Z,59.30
2022-10-21T10:03:35.039Z,59.50
2022-10-21T10:06:05.868Z,59.40
2022-10-21T10:08:40.266Z,59.30
2022-10-21T10:11:18.473Z,59.20
2022-10-21T10:13:49.721Z,59.30
2022-10-21T10:16:23.883Z,59.30
2022-10-21T10:19:11.326Z,59.30
2022-10-21T10:21:40.143Z,59.50
2022-10-21T10:24:18.022Z,59.40
2022-10-21T10:26:47.808Z,59.30
2022-10-21T10:29:26.103Z,59.40
2022-10-21T10:31:58.383Z,59.40
2022-10-21T10:34:34.670Z,59.50
2022-10-21T10:37:15.455Z,59.60
2022-10-21T10:39:47.071Z,59.50
2022-10-21T10:42:19.470Z,59.60
2022-10-21T10:44:48.120Z,59.70
2022-10-21T10:47:24.152Z,59.90
2022-10-21T10:49:53.983Z,59.70
2022-10-21T10:52:24.406Z,59.80
2022-10-21T10:55:18.987Z,59.70
2022-10-21T10:58:05.908Z,59.60
2022-10-21T11:00:47.865Z,59.70
2022-10-21T11:03:26.156Z,59.70
2022-10-21T11:06:05.870Z,59.70
2022-10-21T11:08:40.445Z,59.80
2022-10-21T11:11:15.613Z,59.70
2022-10-21T11:13:44.008Z,59.80
2022-10-21T11:16:50.388Z,59.80
2022-10-21T11:19:31.364Z,60.30
2022-10-21T11:22:13.611Z,60.70
2022-10-21T11:24:57.622Z,60.40
2022-10-21T11:28:10.149Z,60.10
2022-10-21T11:30:55.735Z,59.90
2022-10-21T11:33:35.259Z,59.70
2022-10-21T11:36:14.071Z,60.00
2022-10-21T11:39:26.898Z,60.20
2022-10-21T11:42:01.203Z,62.90
2022-10-21T11:44:45.644Z,67.10
2022-10-21T11:47:23.820Z,73.20
2022-10-21T11:50:01.340Z,80.10
2022-10-21T11:52:42.367Z,83.10
2022-10-21T11:55:32.368Z,85.80
2022-10-21T11:58:14.331Z,83.60
2022-10-21T12:00:50.060Z,80.90
2022-10-21T12:03:48.503Z,81.20
2022-10-21T12:06:31.246Z,78.30
2022-10-21T12:09:03.128Z,77.50
2022-10-21T12:11:42.397Z,76.20
2022-10-21T12:14:30.889Z,76.80
2022-10-21T12:17:02.783Z,77.60
2022-10-21T12:19:31.820Z,73.80
2022-10-21T12:22:00.861Z,74.10
2022-10-21T12:24:45.253Z,75.90
2022-10-21T12:27:24.590Z,75.10
2022-10-21T12:30:03.934Z,74.50
2022-10-21T12:32:41.548Z,74.00
2022-10-21T12:35:15.746Z,73.50
2022-10-21T12:38:08.409Z,73.20
2022-10-21T12:40:41.056Z,72.70
2022-10-21T12:43:23.798Z,72.50
2022-10-21T12:46:07.036Z,72.20
2022-10-21T12:48:39.731Z,71.60
2022-10-21T12:51:20.806Z,71.30
2022-10-21T12:56:32.958Z,71.30
2022-10-21T12:59:06.188Z,70.90
2022-10-21T13:01:45.130Z,70.80
2022-10-21T13:04:50.221Z,70.50
2022-10-21T13:07:40.729Z,70.50
2022-10-21T13:10:27.460Z,70.40
2022-10-21T13:13:31.938Z,70.30
2022-10-21T13:16:26.136Z,70.10
2022-10-21T13:18:57.606Z,70.10
2022-10-21T13:21:36.667Z,69.90
2022-10-21T13:24:28.007Z,69.80
2022-10-21T13:26:58.588Z,69.50
2022-10-21T13:29:45.490Z,69.50
2022-10-21T13:32:28.570Z,69.40
2022-10-21T13:35:36.719Z,69.30
2022-10-21T13:38:19.406Z,68.80
2022-10-21T13:40:51.498Z,68.90
2022-10-21T13:43:28.907Z,69.00
2022-10-21T13:46:06.695Z,68.70
2022-10-21T13:48:42.136Z,68.70
2022-10-21T13:51:20.653Z,68.90
2022-10-21T13:53:49.957Z,68.70
2022-10-21T13:56:24.335Z,68.80
2022-10-21T13:58:53.217Z,68.90
2022-10-21T14:01:25.573Z,70.20
2022-10-21T14:04:12.200Z,70.00
2022-10-21T14:06:47.643Z,70.40
2022-10-21T14:09:20.617Z,69.10
2022-10-21T14:11:52.570Z,65.90
2022-10-21T14:14:25.095Z,64.00
2022-10-21T14:16:57.696Z,63.60
2022-10-21T14:19:30.543Z,63.20
2022-10-21T14:22:01.304Z,63.00
2022-10-21T14:24:40.160Z,62.80
2022-10-21T14:27:11.675Z,62.80
2022-10-21T14:29:41.649Z,63.20
2022-10-21T14:32:13.810Z,63.20
2022-10-21T14:35:03.225Z,63.40
2022-10-21T14:37:37.342Z,63.30
2022-10-21T14:40:21.549Z,63.80
2022-10-21T14:42:53.319Z,63.00
2022-10-21T14:45:29.038Z,62.80
2022-10-21T14:48:09.168Z,63.00
2022-10-21T14:50:41.042Z,63.30
2022-10-21T14:53:18.947Z,64.00
2022-10-21T14:55:48.447Z,64.50
2022-10-21T14:58:23.087Z,65.00
2022-10-21T15:00:57.232Z,65.10
2022-10-21T15:03:42.193Z,64.70
2022-10-21T15:06:15.563Z,65.50
2022-10-21T15:08:59.383Z,64.70
2022-10-21T15:11:42.296Z,64.70
2022-10-21T15:14:23.958Z,64.80
2022-10-21T15:16:55.790Z,67.10
2022-10-21T15:19:28.398Z,66.70
2022-10-21T15:22:03.696Z,66.60
2022-10-21T15:24:45.069Z,66.00
2022-10-21T15:27:20.346Z,66.20
2022-10-21T15:29:49.613Z,66.40
2022-10-21T15:32:25.460Z,66.80
2022-10-21T15:34:57.933Z,66.80
2022-10-21T15:37:27.652Z,67.10
2022-10-21T15:39:55.834Z,67.50
2022-10-21T15:42:24.170Z,67.70
2022-10-21T15:44:52.827Z,67.70
2022-10-21T15:47:21.098Z,67.80
2022-10-21T15:49:49.489Z,67.70
2022-10-21T15:52:17.974Z,68.00
2022-10-21T15:54:47.553Z,67.40
2022-10-21T15:57:19.129Z,68.20
2022-10-21T15:59:48.148Z,67.40
2022-10-21T16:02:18.138Z,67.50
2022-10-21T16:04:46.834Z,68.00
2022-10-21T16:07:24.842Z,67.90
2022-10-21T16:09:54.758Z,67.80
2022-10-21T16:12:23.498Z,68.00
2022-10-21T16:14:51.997Z,68.20
2022-10-21T16:17:20.728Z,67.90
2022-10-21T16:19:48.992Z,68.10
2022-10-21T16:22:23.854Z,68.30
2022-10-21T16:24:52.116Z,68.40
2022-10-21T16:27:31.004Z,68.50
2022-10-21T16:30:19.427Z,68.50
2022-10-21T16:32:48.023Z,68.20
2022-10-21T16:35:18.142Z,68.10
2022-10-21T16:37:47.505Z,67.40
2022-10-21T16:40:20.931Z,67.20
2022-10-21T16:42:51.896Z,66.00
2022-10-21T16:45:23.368Z,65.70
2022-10-21T16:47:56.722Z,65.60
2022-10-21T16:50:30.884Z,66.20
2022-10-21T16:53:02.051Z,64.20
2022-10-21T16:55:30.459Z,65.40
2022-10-21T16:58:00.551Z,65.00
2022-10-21T17:00:29.203Z,63.00
2022-10-21T17:02:59.078Z,63.40
2022-10-21T17:05:27.653Z,66.00
2022-10-21T17:07:57.072Z,65.20
2022-10-21T17:10:25.320Z,65.40
2022-10-21T17:12:58.777Z,65.70
2022-10-21T17:15:29.313Z,66.20
2022-10-21T17:17:57.592Z,68.60
2022-10-21T17:20:30.369Z,67.10
2022-10-21T17:22:59.655Z,67.10
2022-10-21T17:25:28.646Z,67.20
2022-10-21T17:27:57.066Z,67.40
2022-10-21T17:30:25.546Z,67.80
2022-10-21T17:32:55.236Z,67.40
2022-10-21T17:35:23.823Z,66.90
2022-10-21T17:37:53.582Z,70.60
2022-10-21T17:40:24.716Z,70.40
2022-10-21T17:42:53.506Z,70.60
2022-10-21T17:45:23.251Z,70.40
2022-10-21T17:47:52.787Z,69.90
2022-10-21T17:50:24.448Z,69.80
2022-10-21T17:52:53.445Z,69.70
2022-10-21T17:55:22.355Z,69.20
2022-10-21T17:57:50.723Z,68.70
2022-10-21T18:00:19.241Z,68.80
2022-10-21T18:02:47.546Z,69.10
2022-10-21T18:05:16.813Z,68.50
2022-10-21T18:07:46.543Z,67.10
2022-10-21T18:10:15.120Z,68.70
2022-10-21T18:12:43.409Z,69.60
2022-10-21T18:15:12.414Z,69.70
2022-10-21T18:17:41.111Z,68.20
2022-10-21T18:20:11.251Z,67.00
2022-10-21T18:22:39.849Z,65.90
2022-10-21T18:25:10.955Z,65.60
2022-10-21T18:27:40.221Z,66.10
2022-10-21T18:30:10.833Z,66.30
2022-10-21T18:32:39.547Z,66.00
2022-10-21T18:35:09.785Z,66.20
2022-10-21T18:37:38.561Z,65.90
2022-10-21T18:40:10.861Z,66.30
2022-10-21T18:42:39.222Z,66.10
2022-10-21T18:45:09.246Z,67.30
2022-10-21T18:47:37.916Z,66.50
2022-10-21T18:50:08.425Z,67.00
2022-10-21T18:52:36.721Z,67.00
2022-10-21T18:57:36.473Z,67.30
2022-10-21T19:00:07.222Z,67.10
2022-10-21T19:02:35.912Z,67.40
2022-10-21T19:05:04.788Z,67.10
2022-10-21T19:07:33.876Z,67.50
2022-10-21T19:10:06.511Z,67.00
2022-10-21T19:12:36.640Z,66.30
2022-10-21T19:15:06.789Z,65.40
2022-10-21T19:17:35.627Z,64.80
2022-10-21T19:20:04.252Z,65.10
2022-10-21T19:22:32.547Z,65.10
2022-10-21T19:25:00.908Z,65.40
2022-10-21T19:27:29.526Z,65.30
2022-10-21T19:29:59.126Z,65.70
2022-10-21T19:32:27.292Z,65.60
2022-10-21T19:34:55.533Z,66.20
2022-10-21T19:37:24.950Z,66.30
2022-10-21T19:39:53.143Z,66.00
2022-10-21T19:42:21.444Z,66.30
2022-10-21T19:44:49.677Z,66.30
2022-10-21T19:47:19.299Z,66.30
2022-10-21T19:49:49.584Z,64.90
2022-10-21T19:52:19.338Z,64.60
2022-10-21T19:54:52.216Z,64.30
2022-10-21T19:57:20.468Z,64.50
2022-10-21T19:59:49.737Z,64.90
2022-10-21T20:02:20.435Z,65.10
2022-10-21T20:04:50.445Z,65.00
2022-10-21T20:07:20.371Z,65.10
2022-10-21T20:09:48.708Z,65.50
2022-10-21T20:12:17.245Z,65.90
2022-10-21T20:14:45.661Z,65.90
2022-10-21T20:17:17.407Z,66.20
2022-10-21T20:19:50.434Z,66.20
2022-10-21T20:22:18.985Z,66.40
2022-10-21T20:24:47.379Z,66.60
2022-10-21T20:27:15.694Z,66.00
2022-10-21T20:29:43.953Z,66.00
2022-10-21T20:32:12.262Z,65.90
2022-10-21T20:34:43.047Z,66.10
2022-10-21T20:37:12.622Z,66.00
2022-10-21T20:39:40.956Z,66.30
2022-10-21T20:42:09.431Z,65.90
2022-10-21T20:44:37.794Z,65.80
2022-10-21T20:47:05.997Z,66.00
2022-10-21T20:49:34.308Z,66.10
2022-10-21T20:52:04.260Z,66.00
2022-10-21T20:54:34.231Z,65.60
2022-10-21T20:57:02.910Z,65.90
2022-10-21T20:59:31.657Z,66.00
2022-10-21T21:01:59.830Z,65.90
2022-10-21T21:04:28.129Z,66.00
2022-10-21T21:06:56.337Z,65.80
2022-10-21T21:12:15.731Z,66.20
2022-10-21T21:14:43.976Z,66.10
2022-10-21T21:17:12.247Z,65.90
2022-10-21T21:19:41.273Z,66.00
2022-10-21T21:22:09.710Z,65.50
2022-10-21T21:24:38.094Z,65.70
2022-10-21T21:27:06.355Z,65.60
2022-10-21T21:29:36.710Z,65.40
2022-10-21T21:32:05.987Z,65.30
2022-10-21T21:34:34.719Z,65.10
2022-10-21T21:37:03.049Z,65.10
2022-10-21T21:39:31.463Z,65.20
2022-10-21T21:41:59.600Z,65.20
2022-10-21T21:44:28.025Z,65.40
2022-10-21T21:46:57.747Z,65.20
2022-10-21T21:49:26.114Z,65.60
2022-10-21T21:51:54.366Z,65.30
2022-10-21T21:54:22.871Z,65.40
2022-10-21T21:56:54.441Z,65.60
2022-10-21T21:59:29.836Z,65.10
2022-10-21T22:01:59.758Z,65.10
2022-10-21T22:04:28.822Z,65.60
2022-10-21T22:07:01.914Z,65.20
2022-10-21T22:09:32.595Z,65.40
2022-10-21T22:12:01.494Z,65.50
2022-10-21T22:14:30.259Z,65.90
2022-10-21T22:45:29.133Z,64.70
2022-10-21T22:47:57.485Z,65.50
2022-10-21T22:50:26.010Z,65.40
2022-10-21T22:52:54.488Z,67.30
2022-10-21T22:55:22.993Z,66.10
2022-10-21T22:57:51.637Z,66.10
2022-10-21T23:47:17.123Z,62.50
2022-10-21T23:49:45.380Z,63.30
2022-10-21T23:52:13.537Z,63.70
2022-10-21T23:54:41.838Z,63.20
2022-10-21T23:57:10.108Z,63.40
2022-10-21T23:59:38.345Z,63.50
